Home > Products > Valid Products > TAF

000
FTUS44 KEPZ 032335
TAFTCS
TAF
KTCS 032335Z 0400/0424 05007KT P6SM SCT110
     FM040300 34007KT P6SM FEW150
     FM041600 04006KT P6SM SKC=



000
FTUS44 KEPZ 032335
TAFELP
TAF
KELP 032335Z 0400/0424 02008KT P6SM FEW120
     FM040400 05011KT P6SM SKC
     FM041600 09011KT P6SM SKC=



000
FTUS44 KEPZ 032335
TAFDMN
TAF
KDMN 032335Z 0400/0424 10006KT P6SM SKC
     FM040600 04011KT P6SM FEW120
     FM041600 09012KT P6SM SKC=



000
FTUS44 KEPZ 031720
TAFDMN
TAF
KDMN 031720Z 0318/0418 10011KT P6SM SKC
     FM040600 04011KT P6SM FEW120
     FM041600 09012KT P6SM SKC=



000
FTUS44 KEPZ 031720
TAFELP
TAF
KELP 031720Z 0318/0418 04008KT P6SM FEW120
     FM040300 05011KT P6SM SKC
     FM041600 09011KT P6SM SKC=



000
FTUS44 KEPZ 031720
TAFTCS
TAF
KTCS 031720Z 0318/0418 05007KT P6SM SCT110
     FM040300 34007KT P6SM FEW150
     FM041600 04006KT P6SM SKC=



000
FTUS44 KEPZ 031720
TAFELP
TAF
KELP 031720Z 0318/0418 04008KT P6SM FEW120
     FM040300 05011KT P6SM SKC
     FM041600 09011KT P6SM SKC=



000
FTUS44 KEPZ 031720
TAFTCS
TAF
KTCS 031720Z 0318/0418 05007KT P6SM SCT110
     FM040300 34007KT P6SM FEW150
     FM041600 04006KT P6SM SKC=



000
FTUS44 KEPZ 031720
TAFDMN
TAF
KDMN 031720Z 0318/0418 10011KT P6SM SKC
     FM040600 04011KT P6SM FEW120
     FM041600 09012KT P6SM SKC=



000
FTUS44 KEPZ 031130
TAFELP
TAF
KELP 031130Z 0312/0412 VRB04KT P6SM SKC
     FM031800 04008KT P6SM FEW120
     FM040300 05012KT P6SM SKC=



000
FTUS44 KEPZ 031130
TAFDMN
TAF
KDMN 031130Z 0312/0412 05006KT P6SM SKC
     FM032000 13007KT P6SM FEW140
     FM040800 04011KT P6SM FEW120=



000
FTUS44 KEPZ 031130
TAFTCS
TAF
KTCS 031130Z 0312/0412 36005KT P6SM FEW120
     FM031900 06010KT P6SM SCT080
     FM040300 36010KT P6SM FEW120=



000
FTUS44 KEPZ 030521
TAFTCS
TAF
KTCS 030521Z 0306/0406 32005KT P6SM SKC
     FM031800 08008KT P6SM SCT080=



000
FTUS44 KEPZ 030521
TAFELP
TAF
KELP 030521Z 0306/0406 07004KT P6SM SKC
     FM031800 04008KT P6SM FEW120=



000
FTUS44 KEPZ 030521
TAFDMN
TAF
KDMN 030521Z 0306/0406 07006KT P6SM SKC
     FM031900 13007KT P6SM SKC
     FM040000 09007KT P6SM FEW120=



000
FTUS44 KEPZ 022320
TAFELP
TAF
KELP 022320Z 0300/0324 08005KT P6SM SKC
     FM030800 VRB03KT P6SM SKC
     FM031800 06005KT P6SM SKC=



000
FTUS44 KEPZ 022320
TAFTCS
TAF
KTCS 022320Z 0300/0324 14007KT P6SM FEW080
     FM030500 31005KT P6SM SKC
     FM031800 08005KT P6SM SCT080=



000
FTUS44 KEPZ 022320
TAFTCS
TAF
KTCS 022320Z 0300/0324 14007KT P6SM FEW080
     FM030500 31005KT P6SM SKC
     FM031800 08005KT P6SM SCT080=



000
FTUS44 KEPZ 022320
TAFDMN
TAF
KDMN 022320Z 0300/0324 07005KT P6SM SKC
     FM031900 11007G14KT P6SM SKC=



000
FTUS44 KEPZ 022320
TAFELP
TAF
KELP 022320Z 0300/0324 08005KT P6SM SKC
     FM030800 VRB03KT P6SM SKC
     FM031800 06005KT P6SM SKC=



000
FTUS44 KEPZ 022320
TAFDMN
TAF
KDMN 022320Z 0300/0324 07005KT P6SM SKC
     FM031900 11007G14KT P6SM SKC=



000
FTUS44 KEPZ 021732
TAFDMN
TAF
KDMN 021732Z 0218/0318 10012KT P6SM SKC
     FM022200 13007KT P6SM SKC
     FM030200 06006KT P6SM SKC=



000
FTUS44 KEPZ 021732
TAFELP
TAF
KELP 021732Z 0218/0318 12007KT P6SM SKC
     FM030800 04004KT P6SM SKC=



000
FTUS44 KEPZ 021732
TAFTCS
TAF
KTCS 021732Z 0218/0318 10005KT P6SM FEW080
     FM022000 16011KT P6SM SCT080
     FM030500 30006KT P6SM FEW080
     FM031200 VRB04KT P6SM SKC=



000
FTUS44 KEPZ 021141
TAFELP
TAF
KELP 021141Z 0212/0312 06010KT P6SM SCT060
     FM021600 09007KT P6SM SKC=



000
FTUS44 KEPZ 021141
TAFTCS
TAF
KTCS 021141Z 0212/0312 03011G20KT P6SM BKN050
     FM021500 12010KT P6SM SCT060
     FM021800 16011KT P6SM SCT070
     FM030500 30006KT P6SM SCT070=



000
FTUS44 KEPZ 021141
TAFDMN
TAF
KDMN 021141Z 0212/0312 09012KT P6SM SKC
     FM021500 10013G20KT P6SM SKC
     FM030200 06006KT P6SM SKC=



000
FTUS44 KEPZ 020541
TAFDMN
TAF
KDMN 020541Z 0206/0306 07017G24KT P6SM FEW050 SCT080
     FM020900 08015KT P6SM FEW080
     FM021400 08012G18KT P6SM SKC
     FM022100 11008KT P6SM SKC=



000
FTUS44 KEPZ 020541
TAFTCS
TAF
KTCS 020541Z 0206/0306 03011G20KT P6SM FEW080
     FM020800 03009KT P6SM SCT060
     FM021800 12008KT P6SM SKC=



000
FTUS44 KEPZ 020541
TAFELP
TAF
KELP 020541Z 0206/0306 08010G18KT P6SM FEW060
     FM020800 05007KT P6SM FEW060
     FM021200 05007KT P6SM SCT040
     FM021600 06009KT P6SM FEW060
     FM022000 08007KT P6SM SKC=



000
FTUS44 KEPZ 012323
TAFTCS
TAF
KTCS 012323Z 0200/0224 02014G24KT P6SM VCSH BKN070
     FM020400 03013G20KT P6SM SCT070
     FM020700 04007KT P6SM FEW070
     FM021800 14006KT P6SM FEW120=



000
FTUS44 KEPZ 012323
TAFELP
TAF
KELP 012323Z 0200/0224 08013G19KT P6SM FEW060
     FM020700 04007KT P6SM FEW070
     FM021600 06008KT P6SM FEW100
     FM021800 09007KT P6SM SKC=



000
FTUS44 KEPZ 012323
TAFDMN
TAF
KDMN 012323Z 0200/0224 14011KT P6SM FEW080 SCT100
     FM020200 08017G23KT P6SM SCT100
     FM020900 06012KT P6SM FEW100
     FM021600 07017G23KT P6SM FEW100
     FM022000 14008KT P6SM SKC=



000
FTUS44 KEPZ 011741
TAFDMN
TAF
KDMN 011741Z 0118/0218 12011KT P6SM SCT100 BKN250
     FM020200 05012KT P6SM SCT100
     FM020900 06010KT P6SM FEW100
     FM021600 06012G20KT P6SM FEW100=



000
FTUS44 KEPZ 011741
TAFTCS
TAF
KTCS 011741Z 0118/0218 15015G25KT P6SM VCTS BKN050CB BKN090
      TEMPO 0118/0121 VRB25G40KT 5SM -TSRAGS BKN050CB BKN090
     FM020000 13012G22KT P6SM VCSH SCT050 BKN090 BKN130
     FM020300 03015G25KT P6SM VCSH SCT050 BKN090 BKN130
     FM020700 02012G20KT P6SM FEW050 BKN090 BKN130
     FM021600 12011KT P6SM SCT050 SCT090 BKN130=



000
FTUS44 KEPZ 011741
TAFELP
TAF
KELP 011741Z 0118/0218 08015G25KT P6SM SCT060 BKN100
     FM020300 09013G22KT P6SM SCT100
     FM020900 06010KT P6SM FEW100
     FM021600 06012G20KT P6SM FEW100=



000
FTUS44 KEPZ 011741
TAFDMN
TAF
KDMN 011741Z 0118/0218 12011KT P6SM SCT100 BKN250
     FM020200 05012KT P6SM SCT100
     FM020900 06010KT P6SM FEW100
     FM021600 06012G20KT P6SM FEW100=



000
FTUS44 KEPZ 011741
TAFTCS
TAF
KTCS 011741Z 0118/0218 15015G25KT P6SM VCTS BKN050CB BKN090
      TEMPO 0118/0121 VRB25G40KT 5SM -TSRAGS BKN050CB BKN090
     FM020000 13012G22KT P6SM VCSH SCT050 BKN090 BKN130
     FM020300 03015G25KT P6SM VCSH SCT050 BKN090 BKN130
     FM020700 02012G20KT P6SM FEW050 BKN090 BKN130
     FM021600 12011KT P6SM SCT050 SCT090 BKN130=



000
FTUS44 KEPZ 011741
TAFELP
TAF
KELP 011741Z 0118/0218 08015G25KT P6SM SCT060 BKN100
     FM020300 09013G22KT P6SM SCT100
     FM020900 06010KT P6SM FEW100
     FM021600 06012G20KT P6SM FEW100=



000
FTUS44 KEPZ 011120
TAFELP
TAF
KELP 011120Z 0112/0212 04014G24KT P6SM SCT100
     FM011600 08015G25KT P6SM SCT060 BKN100
     FM020300 06013KT P6SM SCT100=



000
FTUS44 KEPZ 011120
TAFTCS
TAF
KTCS 011120Z 0112/0212 04015G25KT P6SM SCT050 BKN100
     FM011600 15015G25KT P6SM VCTS BKN060CB
     FM020200 02012KT P6SM BKN070=



000
FTUS44 KEPZ 011120
TAFDMN
TAF
KDMN 011120Z 0112/0212 24013KT P6SM SCT100
     FM011400 09008KT P6SM BKN100
     FM011800 21012KT P6SM SCT100 BKN250
     FM020200 05012KT P6SM SCT100=



000
FTUS44 KEPZ 011120
TAFELP
TAF
KELP 011120Z 0112/0212 04014G24KT P6SM SCT100
     FM011600 08015G25KT P6SM SCT060 BKN100
     FM020300 06013KT P6SM SCT100=



000
FTUS44 KEPZ 011120
TAFTCS
TAF
KTCS 011120Z 0112/0212 04015G25KT P6SM SCT050 BKN100
     FM011600 15015G25KT P6SM VCTS BKN060CB
     FM020200 02012KT P6SM BKN070=



000
FTUS44 KEPZ 011120
TAFDMN
TAF
KDMN 011120Z 0112/0212 24013KT P6SM SCT100
     FM011400 09008KT P6SM BKN100
     FM011800 21012KT P6SM SCT100 BKN250
     FM020200 05012KT P6SM SCT100=



000
FTUS44 KEPZ 010541
TAFDMN
TAF
KDMN 010541Z 0106/0206 23005KT P6SM FEW120
     FM011400 09006KT P6SM FEW070
     FM011800 21011G17KT P6SM SCT070
     FM020000 24012KT P6SM SCT080
     FM020200 03010KT P6SM SCT100
     FM020400 07015KT P6SM FEW100=



000
FTUS44 KEPZ 010541
TAFELP
TAF
KELP 010541Z 0106/0206 29008KT P6SM FEW100
     FM011200 36014KT P6SM FEW100
     FM011600 04018G25KT P6SM SCT080
     FM011800 09015G22KT P6SM SCT100=



000
FTUS44 KEPZ 010541
TAFTCS
TAF
KTCS 010541Z 0106/0206 09011KT P6SM BKN100
     FM010800 05013G21KT P6SM FEW070
     FM011700 10011G17KT P6SM BKN070
     FM012000 16015G22KT P6SM VCSH OVC060
     FM020200 09007KT P6SM BKN080=



    US Dept of Commerce
    National Oceanic and Atmospheric Administration
    National Weather Service
    1325 East West Highway
    Silver Spring, MD 20910
    Page Author: NWS Internet Services Team
Disclaimer
Information Quality
Credits
Glossary
Privacy Policy
Freedom of Information Act (FOIA)
About Us
Career Opportunities